sensor_id;sensor_type;location;lat;lon;timestamp;temperature;humidity
18139;DHT22;9195;53.176;9.486;2022-07-01T00:00:42;19.10;99.90
18139;DHT22;9195;53.176;9.486;2022-07-01T00:03:08;19.30;99.90
18139;DHT22;9195;53.176;9.486;2022-07-01T00:05:33;19.20;99.90
18139;DHT22;9195;53.176;9.486;2022-07-01T00:07:59;19.20;99.90
18139;DHT22;9195;53.176;9.486;2022-07-01T00:10:25;19.40;99.90
18139;DHT22;9195;53.176;9.486;2022-07-01T00:12:50;19.30;99.90
18139;DHT22;9195;53.176;9.486;2022-07-01T00:15:16;19.30;99.90
18139;DHT22;9195;53.176;9.486;2022-07-01T00:17:41;18.90;99.90
18139;DHT22;9195;53.176;9.486;2022-07-01T00:20:09;19.30;99.90
18139;DHT22;9195;53.176;9.486;2022-07-01T00:22:35;19.20;99.90
18139;DHT22;9195;53.176;9.486;2022-07-01T00:25:00;19.10;99.90
18139;DHT22;9195;53.176;9.486;2022-07-01T00:27:26;19.20;99.90
18139;DHT22;9195;53.176;9.486;2022-07-01T00:29:52;18.90;99.90
18139;DHT22;9195;53.176;9.486;2022-07-01T00:32:17;19.30;99.90
18139;DHT22;9195;53.176;9.486;2022-07-01T00:34:43;19.10;99.90
18139;DHT22;9195;53.176;9.486;2022-07-01T00:37:09;19.00;99.90
18139;DHT22;9195;53.176;9.486;2022-07-01T00:39:34;19.30;99.90
18139;DHT22;9195;53.176;9.486;2022-07-01T00:42:03;18.90;99.90
18139;DHT22;9195;53.176;9.486;2022-07-01T00:44:30;18.90;99.90
18139;DHT22;9195;53.176;9.486;2022-07-01T00:46:56;18.80;99.90
18139;DHT22;9195;53.176;9.486;2022-07-01T00:49:24;19.10;99.90
18139;DHT22;9195;53.176;9.486;2022-07-01T00:51:51;18.90;99.90
18139;DHT22;9195;53.176;9.486;2022-07-01T00:54:18;19.10;99.90
18139;DHT22;9195;53.176;9.486;2022-07-01T00:56:44;19.10;99.90
18139;DHT22;9195;53.176;9.486;2022-07-01T00:59:09;19.00;99.90
18139;DHT22;9195;53.176;9.486;2022-07-01T01:01:35;19.20;99.90
18139;DHT22;9195;53.176;9.486;2022-07-01T01:04:01;19.10;99.90
18139;DHT22;9195;53.176;9.486;2022-07-01T01:06:27;18.90;99.90
18139;DHT22;9195;53.176;9.486;2022-07-01T01:08:53;19.20;99.90
18139;DHT22;9195;53.176;9.486;2022-07-01T01:11:19;18.90;99.90
18139;DHT22;9195;53.176;9.486;2022-07-01T01:13:45;19.00;99.90
18139;DHT22;9195;53.176;9.486;2022-07-01T01:16:22;19.00;99.90
18139;DHT22;9195;53.176;9.486;2022-07-01T01:18:48;18.80;99.90
18139;DHT22;9195;53.176;9.486;2022-07-01T01:21:14;18.80;99.90
18139;DHT22;9195;53.176;9.486;2022-07-01T01:23:41;19.10;99.90
18139;DHT22;9195;53.176;9.486;2022-07-01T01:26:21;19.00;99.90
18139;DHT22;9195;53.176;9.486;2022-07-01T01:28:48;18.90;99.90
18139;DHT22;9195;53.176;9.486;2022-07-01T01:31:14;19.00;99.90
18139;DHT22;9195;53.176;9.486;2022-07-01T01:33:40;19.10;99.90
18139;DHT22;9195;53.176;9.486;2022-07-01T01:36:06;19.10;99.90
18139;DHT22;9195;53.176;9.486;2022-07-01T01:38:35;18.90;99.90
18139;DHT22;9195;53.176;9.486;2022-07-01T01:41:02;18.90;99.90
18139;DHT22;9195;53.176;9.486;2022-07-01T01:43:28;19.00;99.90
18139;DHT22;9195;53.176;9.486;2022-07-01T01:45:54;19.10;99.90
18139;DHT22;9195;53.176;9.486;2022-07-01T01:48:19;19.20;99.90
18139;DHT22;9195;53.176;9.486;2022-07-01T01:50:45;19.00;99.90
18139;DHT22;9195;53.176;9.486;2022-07-01T01:53:11;19.00;99.90
18139;DHT22;9195;53.176;9.486;2022-07-01T01:55:36;18.80;99.90
18139;DHT22;9195;53.176;9.486;2022-07-01T01:58:02;19.30;99.90
18139;DHT22;9195;53.176;9.486;2022-07-01T02:00:27;19.10;99.90
18139;DHT22;9195;53.176;9.486;2022-07-01T02:02:54;18.90;99.90
18139;DHT22;9195;53.176;9.486;2022-07-01T02:05:20;19.00;99.90
18139;DHT22;9195;53.176;9.486;2022-07-01T02:07:45;18.90;99.90
18139;DHT22;9195;53.176;9.486;2022-07-01T02:10:11;18.80;99.90
18139;DHT22;9195;53.176;9.486;2022-07-01T02:12:37;19.00;99.90
18139;DHT22;9195;53.176;9.486;2022-07-01T02:15:03;18.80;99.90
18139;DHT22;9195;53.176;9.486;2022-07-01T02:17:28;18.80;99.90
18139;DHT22;9195;53.176;9.486;2022-07-01T02:19:54;18.70;99.90
18139;DHT22;9195;53.176;9.486;2022-07-01T02:22:20;18.80;99.90
18139;DHT22;9195;53.176;9.486;2022-07-01T02:24:45;18.20;99.90
18139;DHT22;9195;53.176;9.486;2022-07-01T02:27:11;18.20;99.90
18139;DHT22;9195;53.176;9.486;2022-07-01T02:29:37;18.50;99.90
18139;DHT22;9195;53.176;9.486;2022-07-01T02:32:03;18.30;99.90
18139;DHT22;9195;53.176;9.486;2022-07-01T02:34:29;18.00;99.90
18139;DHT22;9195;53.176;9.486;2022-07-01T02:36:55;18.30;99.90
18139;DHT22;9195;53.176;9.486;2022-07-01T02:39:21;18.30;99.90
18139;DHT22;9195;53.176;9.486;2022-07-01T02:41:48;18.10;99.90
18139;DHT22;9195;53.176;9.486;2022-07-01T02:44:33;18.00;99.90
18139;DHT22;9195;53.176;9.486;2022-07-01T02:46:59;18.20;99.90
18139;DHT22;9195;53.176;9.486;2022-07-01T02:49:24;18.20;99.90
18139;DHT22;9195;53.176;9.486;2022-07-01T02:51:50;17.80;99.90
18139;DHT22;9195;53.176;9.486;2022-07-01T02:54:15;17.70;99.90
18139;DHT22;9195;53.176;9.486;2022-07-01T02:56:41;17.80;99.90
18139;DHT22;9195;53.176;9.486;2022-07-01T02:59:07;17.50;99.90
18139;DHT22;9195;53.176;9.486;2022-07-01T03:01:33;17.50;99.90
18139;DHT22;9195;53.176;9.486;2022-07-01T03:03:58;17.60;99.90
18139;DHT22;9195;53.176;9.486;2022-07-01T03:06:24;17.60;99.90
18139;DHT22;9195;53.176;9.486;2022-07-01T03:08:49;17.70;99.90
18139;DHT22;9195;53.176;9.486;2022-07-01T03:11:15;17.70;99.90
18139;DHT22;9195;53.176;9.486;2022-07-01T03:13:40;17.60;99.90
18139;DHT22;9195;53.176;9.486;2022-07-01T03:16:06;17.80;99.90
18139;DHT22;9195;53.176;9.486;2022-07-01T03:18:31;17.50;99.90
18139;DHT22;9195;53.176;9.486;2022-07-01T03:20:57;17.40;99.90
18139;DHT22;9195;53.176;9.486;2022-07-01T03:23:22;17.50;99.90
18139;DHT22;9195;53.176;9.486;2022-07-01T03:25:48;17.40;99.90
18139;DHT22;9195;53.176;9.486;2022-07-01T03:28:13;17.40;99.90
18139;DHT22;9195;53.176;9.486;2022-07-01T03:30:39;17.20;99.90
18139;DHT22;9195;53.176;9.486;2022-07-01T03:33:05;17.30;99.90
18139;DHT22;9195;53.176;9.486;2022-07-01T03:35:31;17.20;99.90
18139;DHT22;9195;53.176;9.486;2022-07-01T03:38:05;17.00;99.90
18139;DHT22;9195;53.176;9.486;2022-07-01T03:40:34;16.90;99.90
18139;DHT22;9195;53.176;9.486;2022-07-01T03:43:00;17.10;99.90
18139;DHT22;9195;53.176;9.486;2022-07-01T03:45:26;16.90;99.90
18139;DHT22;9195;53.176;9.486;2022-07-01T03:47:52;17.00;99.90
18139;DHT22;9195;53.176;9.486;2022-07-01T03:50:21;17.00;99.90
18139;DHT22;9195;53.176;9.486;2022-07-01T03:52:47;16.70;99.90
18139;DHT22;9195;53.176;9.486;2022-07-01T03:55:13;16.80;99.90
18139;DHT22;9195;53.176;9.486;2022-07-01T03:57:39;16.60;99.90
18139;DHT22;9195;53.176;9.486;2022-07-01T04:00:06;16.60;99.90
18139;DHT22;9195;53.176;9.486;2022-07-01T04:02:33;16.40;99.90
18139;DHT22;9195;53.176;9.486;2022-07-01T04:04:58;16.20;99.90
18139;DHT22;9195;53.176;9.486;2022-07-01T04:07:24;16.40;99.90
18139;DHT22;9195;53.176;9.486;2022-07-01T04:09:51;16.30;99.90
18139;DHT22;9195;53.176;9.486;2022-07-01T04:12:17;16.20;99.90
18139;DHT22;9195;53.176;9.486;2022-07-01T04:14:43;16.10;99.90
18139;DHT22;9195;53.176;9.486;2022-07-01T04:17:09;16.10;99.90
18139;DHT22;9195;53.176;9.486;2022-07-01T04:19:35;16.00;99.90
18139;DHT22;9195;53.176;9.486;2022-07-01T04:22:01;16.00;99.90
18139;DHT22;9195;53.176;9.486;2022-07-01T04:24:45;16.00;99.90
18139;DHT22;9195;53.176;9.486;2022-07-01T04:27:11;15.90;99.90
18139;DHT22;9195;53.176;9.486;2022-07-01T04:29:37;16.00;99.90
18139;DHT22;9195;53.176;9.486;2022-07-01T04:32:02;15.80;99.90
18139;DHT22;9195;53.176;9.486;2022-07-01T04:34:28;15.90;99.90
18139;DHT22;9195;53.176;9.486;2022-07-01T04:36:54;15.80;99.90
18139;DHT22;9195;53.176;9.486;2022-07-01T04:39:20;15.80;99.90
18139;DHT22;9195;53.176;9.486;2022-07-01T04:41:46;15.70;99.90
18139;DHT22;9195;53.176;9.486;2022-07-01T04:44:37;15.90;99.90
18139;DHT22;9195;53.176;9.486;2022-07-01T04:47:03;15.70;99.90
18139;DHT22;9195;53.176;9.486;2022-07-01T04:49:30;15.60;99.90
18139;DHT22;9195;53.176;9.486;2022-07-01T04:51:57;15.80;99.90
18139;DHT22;9195;53.176;9.486;2022-07-01T04:54:23;15.60;99.90
18139;DHT22;9195;53.176;9.486;2022-07-01T04:56:51;15.70;99.90
18139;DHT22;9195;53.176;9.486;2022-07-01T04:59:17;15.50;99.90
18139;DHT22;9195;53.176;9.486;2022-07-01T05:01:45;15.50;99.90
18139;DHT22;9195;53.176;9.486;2022-07-01T05:04:12;15.60;99.90
18139;DHT22;9195;53.176;9.486;2022-07-01T05:06:37;15.50;99.90
18139;DHT22;9195;53.176;9.486;2022-07-01T05:09:04;15.50;99.90
18139;DHT22;9195;53.176;9.486;2022-07-01T05:11:30;15.40;99.90
18139;DHT22;9195;53.176;9.486;2022-07-01T05:13:56;15.50;99.90
18139;DHT22;9195;53.176;9.486;2022-07-01T05:16:21;15.40;99.90
18139;DHT22;9195;53.176;9.486;2022-07-01T05:18:47;15.50;99.90
18139;DHT22;9195;53.176;9.486;2022-07-01T05:21:31;15.50;99.90
18139;DHT22;9195;53.176;9.486;2022-07-01T05:24:15;15.50;99.90
18139;DHT22;9195;53.176;9.486;2022-07-01T05:26:41;15.60;99.90
18139;DHT22;9195;53.176;9.486;2022-07-01T05:29:07;15.60;99.90
18139;DHT22;9195;53.176;9.486;2022-07-01T05:31:33;15.60;99.90
18139;DHT22;9195;53.176;9.486;2022-07-01T05:33:59;15.70;99.90
18139;DHT22;9195;53.176;9.486;2022-07-01T05:36:24;15.80;99.90
18139;DHT22;9195;53.176;9.486;2022-07-01T05:38:50;15.60;99.90
18139;DHT22;9195;53.176;9.486;2022-07-01T05:41:15;15.80;99.90
18139;DHT22;9195;53.176;9.486;2022-07-01T05:43:41;15.70;99.90
18139;DHT22;9195;53.176;9.486;2022-07-01T05:46:07;15.60;99.90
18139;DHT22;9195;53.176;9.486;2022-07-01T05:48:33;15.60;99.90
18139;DHT22;9195;53.176;9.486;2022-07-01T05:50:58;15.50;99.90
18139;DHT22;9195;53.176;9.486;2022-07-01T05:53:24;15.50;99.90
18139;DHT22;9195;53.176;9.486;2022-07-01T05:55:50;15.60;99.90
18139;DHT22;9195;53.176;9.486;2022-07-01T05:58:16;15.60;99.90
18139;DHT22;9195;53.176;9.486;2022-07-01T06:00:42;15.90;99.90
18139;DHT22;9195;53.176;9.486;2022-07-01T06:03:12;15.90;99.90
18139;DHT22;9195;53.176;9.486;2022-07-01T06:05:39;15.70;99.90
18139;DHT22;9195;53.176;9.486;2022-07-01T06:08:05;15.80;99.90
18139;DHT22;9195;53.176;9.486;2022-07-01T06:10:31;15.70;99.90
18139;DHT22;9195;53.176;9.486;2022-07-01T06:12:57;15.80;99.90
18139;DHT22;9195;53.176;9.486;2022-07-01T06:15:23;15.90;99.90
18139;DHT22;9195;53.176;9.486;2022-07-01T06:17:49;15.90;99.90
18139;DHT22;9195;53.176;9.486;2022-07-01T06:20:15;15.80;99.90
18139;DHT22;9195;53.176;9.486;2022-07-01T06:22:41;16.00;99.90
18139;DHT22;9195;53.176;9.486;2022-07-01T06:25:07;16.10;99.90
18139;DHT22;9195;53.176;9.486;2022-07-01T06:27:40;15.90;99.90
18139;DHT22;9195;53.176;9.486;2022-07-01T06:30:07;16.10;99.90
18139;DHT22;9195;53.176;9.486;2022-07-01T06:32:32;16.10;99.90
18139;DHT22;9195;53.176;9.486;2022-07-01T06:34:58;16.10;99.90
18139;DHT22;9195;53.176;9.486;2022-07-01T06:37:24;16.40;99.90
18139;DHT22;9195;53.176;9.486;2022-07-01T06:39:49;16.20;99.90
18139;DHT22;9195;53.176;9.486;2022-07-01T06:42:15;16.20;99.90
18139;DHT22;9195;53.176;9.486;2022-07-01T06:44:41;16.10;99.90
18139;DHT22;9195;53.176;9.486;2022-07-01T06:47:07;16.20;99.90
18139;DHT22;9195;53.176;9.486;2022-07-01T06:49:32;16.10;99.90
18139;DHT22;9195;53.176;9.486;2022-07-01T06:51:58;16.20;99.90
18139;DHT22;9195;53.176;9.486;2022-07-01T06:54:23;16.00;99.90
18139;DHT22;9195;53.176;9.486;2022-07-01T06:56:49;16.40;99.90
18139;DHT22;9195;53.176;9.486;2022-07-01T06:59:15;16.40;99.90
18139;DHT22;9195;53.176;9.486;2022-07-01T07:01:41;16.30;99.90
18139;DHT22;9195;53.176;9.486;2022-07-01T07:04:07;16.30;99.90
18139;DHT22;9195;53.176;9.486;2022-07-01T07:06:33;16.30;99.90
18139;DHT22;9195;53.176;9.486;2022-07-01T07:08:58;16.40;99.90
18139;DHT22;9195;53.176;9.486;2022-07-01T07:11:24;16.40;99.90
18139;DHT22;9195;53.176;9.486;2022-07-01T07:13:50;16.50;99.90
18139;DHT22;9195;53.176;9.486;2022-07-01T07:16:15;16.50;99.90
18139;DHT22;9195;53.176;9.486;2022-07-01T07:18:49;16.50;99.90
18139;DHT22;9195;53.176;9.486;2022-07-01T07:21:15;16.60;99.90
18139;DHT22;9195;53.176;9.486;2022-07-01T07:23:40;16.30;99.90
18139;DHT22;9195;53.176;9.486;2022-07-01T07:26:07;16.60;99.90
18139;DHT22;9195;53.176;9.486;2022-07-01T07:28:33;16.60;99.90
18139;DHT22;9195;53.176;9.486;2022-07-01T07:30:58;16.40;99.90
18139;DHT22;9195;53.176;9.486;2022-07-01T07:33:24;16.70;99.90
18139;DHT22;9195;53.176;9.486;2022-07-01T07:35:50;16.70;99.90
18139;DHT22;9195;53.176;9.486;2022-07-01T07:38:15;16.60;99.90
18139;DHT22;9195;53.176;9.486;2022-07-01T07:40:41;16.40;99.90
18139;DHT22;9195;53.176;9.486;2022-07-01T07:43:07;16.50;99.90
18139;DHT22;9195;53.176;9.486;2022-07-01T07:45:33;16.60;99.90
18139;DHT22;9195;53.176;9.486;2022-07-01T07:47:59;16.70;99.90
18139;DHT22;9195;53.176;9.486;2022-07-01T07:50:25;16.80;99.90
18139;DHT22;9195;53.176;9.486;2022-07-01T07:52:51;16.80;99.90
18139;DHT22;9195;53.176;9.486;2022-07-01T07:55:16;17.00;99.90
18139;DHT22;9195;53.176;9.486;2022-07-01T07:57:42;17.10;99.90
18139;DHT22;9195;53.176;9.486;2022-07-01T08:00:10;17.30;99.90
18139;DHT22;9195;53.176;9.486;2022-07-01T08:02:37;17.40;99.90
18139;DHT22;9195;53.176;9.486;2022-07-01T08:05:03;17.00;99.90
18139;DHT22;9195;53.176;9.486;2022-07-01T08:07:28;16.90;99.90
18139;DHT22;9195;53.176;9.486;2022-07-01T08:09:54;17.40;99.90
18139;DHT22;9195;53.176;9.486;2022-07-01T08:12:21;17.40;99.90
18139;DHT22;9195;53.176;9.486;2022-07-01T08:14:48;17.30;99.90
18139;DHT22;9195;53.176;9.486;2022-07-01T08:17:13;17.50;99.90
18139;DHT22;9195;53.176;9.486;2022-07-01T08:19:39;17.20;99.90
18139;DHT22;9195;53.176;9.486;2022-07-01T08:22:05;17.20;99.90
18139;DHT22;9195;53.176;9.486;2022-07-01T08:24:31;17.20;99.90
18139;DHT22;9195;53.176;9.486;2022-07-01T08:26:56;17.10;99.90
18139;DHT22;9195;53.176;9.486;2022-07-01T08:29:22;17.30;99.90
18139;DHT22;9195;53.176;9.486;2022-07-01T08:31:47;16.90;99.90
18139;DHT22;9195;53.176;9.486;2022-07-01T08:34:13;17.10;99.90
18139;DHT22;9195;53.176;9.486;2022-07-01T08:36:38;17.50;99.90
18139;DHT22;9195;53.176;9.486;2022-07-01T08:39:04;17.40;99.90
18139;DHT22;9195;53.176;9.486;2022-07-01T08:41:30;17.60;99.90
18139;DHT22;9195;53.176;9.486;2022-07-01T08:43:55;17.50;99.90
18139;DHT22;9195;53.176;9.486;2022-07-01T08:46:22;17.50;99.90
18139;DHT22;9195;53.176;9.486;2022-07-01T08:48:47;17.40;99.90
18139;DHT22;9195;53.176;9.486;2022-07-01T08:51:14;17.10;99.90
18139;DHT22;9195;53.176;9.486;2022-07-01T08:53:40;16.90;99.90
18139;DHT22;9195;53.176;9.486;2022-07-01T08:56:05;16.70;99.90
18139;DHT22;9195;53.176;9.486;2022-07-01T08:58:50;16.60;99.90
18139;DHT22;9195;53.176;9.486;2022-07-01T09:03:43;16.40;99.90
18139;DHT22;9195;53.176;9.486;2022-07-01T09:06:23;16.20;99.90
18139;DHT22;9195;53.176;9.486;2022-07-01T09:08:49;16.30;99.90
18139;DHT22;9195;53.176;9.486;2022-07-01T09:13:43;16.60;99.90
18139;DHT22;9195;53.176;9.486;2022-07-01T09:16:16;16.70;99.90
18139;DHT22;9195;53.176;9.486;2022-07-01T09:19:02;16.90;99.90
18139;DHT22;9195;53.176;9.486;2022-07-01T09:21:30;16.90;99.90
18139;DHT22;9195;53.176;9.486;2022-07-01T09:24:03;17.20;99.90
18139;DHT22;9195;53.176;9.486;2022-07-01T09:26:30;17.40;99.90
18139;DHT22;9195;53.176;9.486;2022-07-01T09:28:57;17.30;99.90
18139;DHT22;9195;53.176;9.486;2022-07-01T09:31:35;17.20;99.90
18139;DHT22;9195;53.176;9.486;2022-07-01T09:34:05;17.20;99.90
18139;DHT22;9195;53.176;9.486;2022-07-01T09:36:31;16.80;99.90
18139;DHT22;9195;53.176;9.486;2022-07-01T09:38:57;16.80;99.90
18139;DHT22;9195;53.176;9.486;2022-07-01T09:41:25;16.80;99.90
18139;DHT22;9195;53.176;9.486;2022-07-01T09:43:51;16.80;99.90
18139;DHT22;9195;53.176;9.486;2022-07-01T09:46:16;16.90;99.90
18139;DHT22;9195;53.176;9.486;2022-07-01T09:48:44;17.00;99.90
18139;DHT22;9195;53.176;9.486;2022-07-01T09:51:11;17.10;99.90
18139;DHT22;9195;53.176;9.486;2022-07-01T09:53:38;16.90;99.90
18139;DHT22;9195;53.176;9.486;2022-07-01T09:56:04;16.90;99.90
18139;DHT22;9195;53.176;9.486;2022-07-01T09:58:29;17.60;99.90
18139;DHT22;9195;53.176;9.486;2022-07-01T10:00:58;17.60;99.90
18139;DHT22;9195;53.176;9.486;2022-07-01T10:03:26;17.80;99.90
18139;DHT22;9195;53.176;9.486;2022-07-01T10:06:03;17.90;99.90
18139;DHT22;9195;53.176;9.486;2022-07-01T10:09:10;18.20;99.90
18139;DHT22;9195;53.176;9.486;2022-07-01T10:14:30;17.80;99.90
18139;DHT22;9195;53.176;9.486;2022-07-01T10:16:56;18.00;99.90
18139;DHT22;9195;53.176;9.486;2022-07-01T10:19:28;17.80;99.90
18139;DHT22;9195;53.176;9.486;2022-07-01T10:21:56;17.50;99.90
18139;DHT22;9195;53.176;9.486;2022-07-01T10:24:25;17.10;99.90
18139;DHT22;9195;53.176;9.486;2022-07-01T10:26:52;17.20;99.90
18139;DHT22;9195;53.176;9.486;2022-07-01T10:29:35;16.90;99.90
18139;DHT22;9195;53.176;9.486;2022-07-01T10:32:25;16.90;99.90
18139;DHT22;9195;53.176;9.486;2022-07-01T10:35:04;16.40;99.90
18139;DHT22;9195;53.176;9.486;2022-07-01T10:37:30;16.40;99.90
18139;DHT22;9195;53.176;9.486;2022-07-01T10:39:57;16.50;99.90
18139;DHT22;9195;53.176;9.486;2022-07-01T10:42:37;16.50;99.90
18139;DHT22;9195;53.176;9.486;2022-07-01T10:45:20;16.90;99.90
18139;DHT22;9195;53.176;9.486;2022-07-01T10:47:45;17.30;99.90
18139;DHT22;9195;53.176;9.486;2022-07-01T10:50:12;17.60;99.90
18139;DHT22;9195;53.176;9.486;2022-07-01T10:52:40;17.60;99.90
18139;DHT22;9195;53.176;9.486;2022-07-01T10:55:36;18.00;99.90
18139;DHT22;9195;53.176;9.486;2022-07-01T10:58:01;17.70;99.90
18139;DHT22;9195;53.176;9.486;2022-07-01T11:00:29;17.10;99.90
18139;DHT22;9195;53.176;9.486;2022-07-01T11:03:05;17.40;99.90
18139;DHT22;9195;53.176;9.486;2022-07-01T11:05:31;17.60;99.90
18139;DHT22;9195;53.176;9.486;2022-07-01T11:07:57;18.00;99.90
18139;DHT22;9195;53.176;9.486;2022-07-01T11:10:22;17.80;99.90
18139;DHT22;9195;53.176;9.486;2022-07-01T11:12:48;17.90;99.90
18139;DHT22;9195;53.176;9.486;2022-07-01T11:15:15;17.50;99.90
18139;DHT22;9195;53.176;9.486;2022-07-01T11:17:44;17.60;99.90
18139;DHT22;9195;53.176;9.486;2022-07-01T11:20:11;18.00;99.90
18139;DHT22;9195;53.176;9.486;2022-07-01T11:22:36;17.90;99.90
18139;DHT22;9195;53.176;9.486;2022-07-01T11:25:07;17.80;99.90
18139;DHT22;9195;53.176;9.486;2022-07-01T11:27:34;17.60;99.90
18139;DHT22;9195;53.176;9.486;2022-07-01T11:30:02;18.20;99.90
18139;DHT22;9195;53.176;9.486;2022-07-01T11:32:32;18.10;99.90
18139;DHT22;9195;53.176;9.486;2022-07-01T11:34:59;18.60;99.90
18139;DHT22;9195;53.176;9.486;2022-07-01T11:37:27;18.40;99.90
18139;DHT22;9195;53.176;9.486;2022-07-01T11:40:13;18.30;99.90
18139;DHT22;9195;53.176;9.486;2022-07-01T11:42:40;18.40;99.90
18139;DHT22;9195;53.176;9.486;2022-07-01T11:45:06;18.50;99.90
18139;DHT22;9195;53.176;9.486;2022-07-01T11:47:32;18.60;99.90
18139;DHT22;9195;53.176;9.486;2022-07-01T11:49:59;19.40;99.90
18139;DHT22;9195;53.176;9.486;2022-07-01T11:52:25;20.30;99.90
18139;DHT22;9195;53.176;9.486;2022-07-01T11:54:53;20.40;99.90
18139;DHT22;9195;53.176;9.486;2022-07-01T11:57:20;20.50;99.90
18139;DHT22;9195;53.176;9.486;2022-07-01T11:59:48;20.60;99.90
18139;DHT22;9195;53.176;9.486;2022-07-01T12:02:16;20.20;99.90
18139;DHT22;9195;53.176;9.486;2022-07-01T12:04:43;20.30;99.90
18139;DHT22;9195;53.176;9.486;2022-07-01T12:07:10;20.80;99.90
18139;DHT22;9195;53.176;9.486;2022-07-01T12:09:36;21.60;99.90
18139;DHT22;9195;53.176;9.486;2022-07-01T12:12:03;22.10;99.90
18139;DHT22;9195;53.176;9.486;2022-07-01T12:14:32;22.30;99.90
18139;DHT22;9195;53.176;9.486;2022-07-01T12:17:00;22.30;99.90
18139;DHT22;9195;53.176;9.486;2022-07-01T12:22:09;24.50;99.90
18139;DHT22;9195;53.176;9.486;2022-07-01T12:24:36;24.40;99.90
18139;DHT22;9195;53.176;9.486;2022-07-01T12:27:03;24.30;99.90
18139;DHT22;9195;53.176;9.486;2022-07-01T12:29:51;23.80;99.90
18139;DHT22;9195;53.176;9.486;2022-07-01T12:32:20;23.10;99.90
18139;DHT22;9195;53.176;9.486;2022-07-01T12:34:50;22.70;99.90
18139;DHT22;9195;53.176;9.486;2022-07-01T12:37:25;22.50;99.90
18139;DHT22;9195;53.176;9.486;2022-07-01T12:45:04;21.80;99.90
18139;DHT22;9195;53.176;9.486;2022-07-01T12:47:41;22.10;99.90
18139;DHT22;9195;53.176;9.486;2022-07-01T12:53:06;22.70;99.90
18139;DHT22;9195;53.176;9.486;2022-07-01T12:55:43;22.60;99.90
18139;DHT22;9195;53.176;9.486;2022-07-01T12:58:13;22.00;99.90
18139;DHT22;9195;53.176;9.486;2022-07-01T13:00:42;21.80;99.90
18139;DHT22;9195;53.176;9.486;2022-07-01T13:03:08;21.70;99.90
18139;DHT22;9195;53.176;9.486;2022-07-01T13:05:36;21.70;99.90
18139;DHT22;9195;53.176;9.486;2022-07-01T13:08:02;21.50;99.90
18139;DHT22;9195;53.176;9.486;2022-07-01T13:10:29;21.50;99.90
18139;DHT22;9195;53.176;9.486;2022-07-01T13:12:54;21.50;99.90
18139;DHT22;9195;53.176;9.486;2022-07-01T13:15:21;21.00;99.90
18139;DHT22;9195;53.176;9.486;2022-07-01T13:17:47;21.30;99.90
18139;DHT22;9195;53.176;9.486;2022-07-01T13:20:13;21.30;99.90
18139;DHT22;9195;53.176;9.486;2022-07-01T13:22:39;21.80;99.90
18139;DHT22;9195;53.176;9.486;2022-07-01T13:25:06;22.10;99.90
18139;DHT22;9195;53.176;9.486;2022-07-01T13:27:32;22.50;99.90
18139;DHT22;9195;53.176;9.486;2022-07-01T13:29:57;22.00;99.90
18139;DHT22;9195;53.176;9.486;2022-07-01T13:32:24;21.80;99.90
18139;DHT22;9195;53.176;9.486;2022-07-01T13:34:50;21.70;99.90
18139;DHT22;9195;53.176;9.486;2022-07-01T13:37:16;21.60;99.90
18139;DHT22;9195;53.176;9.486;2022-07-01T13:39:41;21.90;99.90
18139;DHT22;9195;53.176;9.486;2022-07-01T13:42:07;23.20;99.90
18139;DHT22;9195;53.176;9.486;2022-07-01T13:44:33;24.50;99.90
18139;DHT22;9195;53.176;9.486;2022-07-01T13:46:59;26.90;99.90
18139;DHT22;9195;53.176;9.486;2022-07-01T13:49:25;27.40;99.90
18139;DHT22;9195;53.176;9.486;2022-07-01T13:51:51;29.60;99.90
18139;DHT22;9195;53.176;9.486;2022-07-01T13:54:16;30.20;99.90
18139;DHT22;9195;53.176;9.486;2022-07-01T13:56:42;28.50;99.90
18139;DHT22;9195;53.176;9.486;2022-07-01T13:59:08;27.20;99.90
18139;DHT22;9195;53.176;9.486;2022-07-01T14:01:34;27.10;99.90
18139;DHT22;9195;53.176;9.486;2022-07-01T14:04:00;26.30;99.90
18139;DHT22;9195;53.176;9.486;2022-07-01T14:06:26;25.40;99.90
18139;DHT22;9195;53.176;9.486;2022-07-01T14:08:51;24.90;99.90
18139;DHT22;9195;53.176;9.486;2022-07-01T14:11:17;24.60;99.90
18139;DHT22;9195;53.176;9.486;2022-07-01T14:13:42;23.80;99.90
18139;DHT22;9195;53.176;9.486;2022-07-01T14:16:08;23.40;99.90
18139;DHT22;9195;53.176;9.486;2022-07-01T14:18:34;23.30;99.90
18139;DHT22;9195;53.176;9.486;2022-07-01T14:21:01;23.50;99.90
18139;DHT22;9195;53.176;9.486;2022-07-01T14:23:27;23.80;99.90
18139;DHT22;9195;53.176;9.486;2022-07-01T14:25:53;24.50;99.90
18139;DHT22;9195;53.176;9.486;2022-07-01T14:28:18;24.80;99.90
18139;DHT22;9195;53.176;9.486;2022-07-01T14:30:44;25.20;99.90
18139;DHT22;9195;53.176;9.486;2022-07-01T14:33:10;24.80;99.90
18139;DHT22;9195;53.176;9.486;2022-07-01T14:35:36;24.00;99.90
18139;DHT22;9195;53.176;9.486;2022-07-01T14:38:02;23.20;99.90
18139;DHT22;9195;53.176;9.486;2022-07-01T14:40:28;23.20;99.90
18139;DHT22;9195;53.176;9.486;2022-07-01T14:42:53;22.70;99.90
18139;DHT22;9195;53.176;9.486;2022-07-01T14:45:19;22.50;99.90
18139;DHT22;9195;53.176;9.486;2022-07-01T14:47:45;22.40;99.90
18139;DHT22;9195;53.176;9.486;2022-07-01T14:50:11;22.30;99.90
18139;DHT22;9195;53.176;9.486;2022-07-01T14:52:37;22.20;99.90
18139;DHT22;9195;53.176;9.486;2022-07-01T14:55:03;22.30;99.90
18139;DHT22;9195;53.176;9.486;2022-07-01T14:57:29;22.40;99.90
18139;DHT22;9195;53.176;9.486;2022-07-01T14:59:55;22.50;99.90
18139;DHT22;9195;53.176;9.486;2022-07-01T15:02:20;22.40;99.90
18139;DHT22;9195;53.176;9.486;2022-07-01T15:04:47;22.40;99.90
18139;DHT22;9195;53.176;9.486;2022-07-01T15:07:13;22.60;99.90
18139;DHT22;9195;53.176;9.486;2022-07-01T15:09:39;22.50;99.90
18139;DHT22;9195;53.176;9.486;2022-07-01T15:12:05;22.30;99.90
18139;DHT22;9195;53.176;9.486;2022-07-01T15:14:32;21.90;99.90
18139;DHT22;9195;53.176;9.486;2022-07-01T15:16:58;21.70;99.90
18139;DHT22;9195;53.176;9.486;2022-07-01T15:19:25;21.50;99.90
18139;DHT22;9195;53.176;9.486;2022-07-01T15:21:53;21.60;99.90
18139;DHT22;9195;53.176;9.486;2022-07-01T15:24:18;21.50;99.90
18139;DHT22;9195;53.176;9.486;2022-07-01T15:26:44;21.40;99.90
18139;DHT22;9195;53.176;9.486;2022-07-01T15:29:09;21.60;99.90
18139;DHT22;9195;53.176;9.486;2022-07-01T15:31:35;21.80;99.90
18139;DHT22;9195;53.176;9.486;2022-07-01T15:34:01;22.00;99.90
18139;DHT22;9195;53.176;9.486;2022-07-01T15:36:27;21.90;99.90
18139;DHT22;9195;53.176;9.486;2022-07-01T15:38:52;22.00;99.90
18139;DHT22;9195;53.176;9.486;2022-07-01T15:41:20;22.40;99.90
18139;DHT22;9195;53.176;9.486;2022-07-01T15:43:49;22.40;99.90
18139;DHT22;9195;53.176;9.486;2022-07-01T15:46:15;22.50;99.90
18139;DHT22;9195;53.176;9.486;2022-07-01T15:48:40;22.50;99.90
18139;DHT22;9195;53.176;9.486;2022-07-01T15:51:06;23.20;99.90
18139;DHT22;9195;53.176;9.486;2022-07-01T15:53:32;23.30;99.90
18139;DHT22;9195;53.176;9.486;2022-07-01T15:55:59;23.60;99.90
18139;DHT22;9195;53.176;9.486;2022-07-01T15:58:25;23.70;99.90
18139;DHT22;9195;53.176;9.486;2022-07-01T16:00:50;23.60;99.90
18139;DHT22;9195;53.176;9.486;2022-07-01T16:03:17;24.20;99.90